Time;durP1;ratioP1;P1;durP2;ratioP2;P2;SDS_P1;SDS_P2;PMS_P1;PMS_P2;Temp;Humidity;BMP_temperature;BMP_pressure;BME280_temperature;BME280_humidity;BME280_pressure;Samples;Min_cycle;Max_cycle;Signal;HPM_P1;HPM_P2
2021/05/16 00:00:30;;;;;;;0.80;0.47;;;;;;;;;;3576121;40;20482;-71
2021/05/16 00:02:56;;;;;;;0.60;0.43;;;;;;;;;;3575488;40;20665;-71
2021/05/16 00:05:23;;;;;;;1.05;0.50;;;;;;;;;;3576018;40;20394;-71
2021/05/16 00:07:51;;;;;;;0.75;0.50;;;;;;;;;;3572713;40;20368;-71
2021/05/16 00:10:18;;;;;;;0.63;0.30;;;;;;;;;;3576108;40;20753;-71
2021/05/16 00:12:44;;;;;;;0.63;0.30;;;;;;;;;;3575974;40;20379;-71
2021/05/16 00:15:12;;;;;;;0.70;0.30;;;;;;;;;;3575407;40;20415;-71
2021/05/16 00:17:38;;;;;;;0.70;0.40;;;;;;;;;;3572339;40;20389;-71
2021/05/16 00:20:09;;;;;;;0.60;0.40;;;;;;;;;;3570913;40;20642;-71
2021/05/16 00:22:35;;;;;;;1.00;0.50;;;;;;;;;;3574452;40;20386;-71
2021/05/16 00:25:03;;;;;;;1.30;0.50;;;;;;;;;;3571377;40;20411;-71
2021/05/16 00:27:29;;;;;;;0.80;0.40;;;;;;;;;;3573324;40;20668;-71
2021/05/16 00:29:55;;;;;;;1.20;0.50;;;;;;;;;;3576481;40;20780;-71
2021/05/16 00:32:21;;;;;;;0.80;0.40;;;;;;;;;;3577578;40;20490;-71
2021/05/16 00:34:47;;;;;;;1.38;0.40;;;;;;;;;;3577407;40;20396;-71
2021/05/16 00:37:13;;;;;;;1.20;0.60;;;;;;;;;;3575849;40;21041;-71
2021/05/16 00:39:39;;;;;;;0.60;0.40;;;;;;;;;;3571942;40;20483;-71
2021/05/16 00:42:07;;;;;;;0.60;0.45;;;;;;;;;;3577014;40;20406;-71
2021/05/16 00:44:33;;;;;;;1.20;0.40;;;;;;;;;;3576917;40;20403;-71
2021/05/16 00:46:59;;;;;;;0.60;0.50;;;;;;;;;;3577442;40;20458;-71
2021/05/16 00:49:25;;;;;;;1.08;0.50;;;;;;;;;;3577479;40;20461;-71
2021/05/16 00:51:51;;;;;;;1.10;0.50;;;;;;;;;;3577222;40;20379;-71
2021/05/16 00:54:18;;;;;;;1.00;0.50;;;;;;;;;;3577371;40;20451;-71
2021/05/16 00:56:44;;;;;;;1.30;0.60;;;;;;;;;;3573889;40;20380;-71
2021/05/16 00:59:11;;;;;;;0.90;0.50;;;;;;;;;;3578293;40;20384;-71
2021/05/16 01:01:38;;;;;;;0.85;0.40;;;;;;;;;;3577576;40;20769;-68
2021/05/16 01:04:04;;;;;;;1.00;0.50;;;;;;;;;;3606137;22;20433;-66
2021/05/16 01:06:30;;;;;;;1.60;0.60;;;;;;;;;;3568923;40;20401;-65
2021/05/16 01:08:58;;;;;;;0.95;0.50;;;;;;;;;;3569647;40;20453;-66
2021/05/16 01:11:29;;;;;;;1.70;0.50;;;;;;;;;;3572679;40;20845;-66
2021/05/16 01:13:55;;;;;;;1.70;0.50;;;;;;;;;;3572139;40;20477;-66
2021/05/16 01:16:22;;;;;;;0.50;0.40;;;;;;;;;;3568896;40;20396;-66
2021/05/16 01:18:48;;;;;;;0.50;0.40;;;;;;;;;;3569728;40;20380;-65
2021/05/16 01:21:17;;;;;;;0.93;0.50;;;;;;;;;;3574606;40;20388;-66
2021/05/16 01:23:47;;;;;;;0.50;0.40;;;;;;;;;;3570050;40;20660;-65
2021/05/16 01:26:14;;;;;;;0.57;0.50;;;;;;;;;;3571665;40;20377;-65
2021/05/16 01:28:43;;;;;;;0.70;0.50;;;;;;;;;;3574790;40;20466;-66
2021/05/16 01:31:09;;;;;;;0.90;0.40;;;;;;;;;;3574956;40;20376;-65
2021/05/16 01:33:35;;;;;;;1.02;0.40;;;;;;;;;;3571590;40;20362;-66
2021/05/16 01:36:01;;;;;;;0.40;0.40;;;;;;;;;;3574941;40;20374;-65
2021/05/16 01:38:28;;;;;;;1.20;0.50;;;;;;;;;;3567372;40;20420;-66
2021/05/16 01:40:54;;;;;;;1.40;0.65;;;;;;;;;;3572203;40;20389;-66
2021/05/16 01:43:21;;;;;;;1.03;0.57;;;;;;;;;;3569412;40;20463;-66
2021/05/16 01:45:47;;;;;;;1.00;0.60;;;;;;;;;;3574189;40;20378;-66
2021/05/16 01:48:13;;;;;;;1.08;0.50;;;;;;;;;;3576646;40;20387;-65
2021/05/16 01:50:40;;;;;;;0.60;0.57;;;;;;;;;;3571650;40;20397;-65
2021/05/16 01:53:07;;;;;;;0.90;0.50;;;;;;;;;;3575939;40;20774;-65
2021/05/16 01:55:35;;;;;;;0.70;0.50;;;;;;;;;;3571586;40;20358;-65
2021/05/16 01:58:03;;;;;;;0.98;0.50;;;;;;;;;;3574829;40;20405;-65
2021/05/16 02:00:30;;;;;;;1.33;0.65;;;;;;;;;;3575547;40;20371;-65
2021/05/16 02:02:56;;;;;;;0.80;0.60;;;;;;;;;;3571527;40;20394;-65
2021/05/16 02:05:22;;;;;;;1.40;0.60;;;;;;;;;;3575341;40;20782;-65
2021/05/16 02:07:49;;;;;;;0.93;0.52;;;;;;;;;;3574927;40;20697;-65
2021/05/16 02:10:15;;;;;;;0.90;0.50;;;;;;;;;;3575892;40;20377;-65
2021/05/16 02:12:42;;;;;;;1.00;0.60;;;;;;;;;;3572125;40;20404;-66
2021/05/16 02:15:11;;;;;;;0.75;0.50;;;;;;;;;;3570684;40;20377;-65
2021/05/16 02:17:39;;;;;;;1.15;0.70;;;;;;;;;;3571141;40;20405;-65
2021/05/16 02:20:06;;;;;;;1.15;0.60;;;;;;;;;;3572768;40;20741;-65
2021/05/16 02:22:32;;;;;;;0.90;0.68;;;;;;;;;;3575154;40;20376;-65
2021/05/16 02:24:58;;;;;;;1.70;0.57;;;;;;;;;;3582344;40;20400;-66
2021/05/16 02:27:24;;;;;;;1.25;0.73;;;;;;;;;;3573611;40;20510;-65
2021/05/16 02:29:51;;;;;;;1.07;0.70;;;;;;;;;;3573206;40;20380;-65
2021/05/16 02:32:17;;;;;;;0.98;0.60;;;;;;;;;;3570326;40;20372;-65
2021/05/16 02:34:43;;;;;;;0.93;0.50;;;;;;;;;;3572292;40;20761;-65
2021/05/16 02:37:10;;;;;;;1.07;0.60;;;;;;;;;;3571593;40;20398;-65
2021/05/16 02:39:36;;;;;;;1.27;0.65;;;;;;;;;;3570259;40;20373;-65
2021/05/16 02:42:02;;;;;;;0.70;0.50;;;;;;;;;;3574405;40;20385;-66
2021/05/16 02:44:28;;;;;;;1.10;0.40;;;;;;;;;;3575195;40;20382;-66
2021/05/16 02:46:56;;;;;;;0.73;0.57;;;;;;;;;;3570903;40;20430;-65
2021/05/16 02:49:22;;;;;;;0.90;0.52;;;;;;;;;;3572914;40;20440;-66
2021/05/16 02:51:48;;;;;;;0.75;0.50;;;;;;;;;;3576545;40;20488;-65
2021/05/16 02:54:14;;;;;;;1.13;0.63;;;;;;;;;;3568420;40;20415;-66
2021/05/16 02:56:41;;;;;;;1.00;0.50;;;;;;;;;;3570136;40;20365;-69
2021/05/16 02:59:07;;;;;;;0.80;0.50;;;;;;;;;;3570998;40;20380;-65
2021/05/16 03:01:33;;;;;;;0.60;0.50;;;;;;;;;;3574759;40;20462;-65
2021/05/16 03:04:00;;;;;;;1.35;0.60;;;;;;;;;;3574091;40;20430;-66
2021/05/16 03:06:27;;;;;;;1.00;0.63;;;;;;;;;;3572173;40;20707;-65
2021/05/16 03:08:53;;;;;;;2.30;0.60;;;;;;;;;;3569257;40;20401;-65
2021/05/16 03:11:19;;;;;;;0.55;0.40;;;;;;;;;;3572599;40;20379;-66
2021/05/16 03:13:45;;;;;;;0.50;0.50;;;;;;;;;;3572860;40;20412;-65
2021/05/16 03:16:11;;;;;;;0.77;0.55;;;;;;;;;;3569747;40;20406;-66
2021/05/16 03:18:37;;;;;;;0.80;0.45;;;;;;;;;;3571387;40;20639;-65
2021/05/16 03:21:05;;;;;;;1.20;0.68;;;;;;;;;;3576791;40;20737;-65
2021/05/16 03:23:31;;;;;;;1.00;0.60;;;;;;;;;;3573553;40;20873;-65
2021/05/16 03:26:00;;;;;;;0.75;0.50;;;;;;;;;;3573056;40;20378;-66
2021/05/16 03:28:27;;;;;;;1.48;0.70;;;;;;;;;;3568303;40;20401;-65
2021/05/16 03:30:53;;;;;;;0.80;0.40;;;;;;;;;;3566841;40;20373;-65
2021/05/16 03:33:19;;;;;;;1.60;0.60;;;;;;;;;;3573179;40;20374;-65
2021/05/16 03:35:45;;;;;;;0.55;0.50;;;;;;;;;;3575566;40;20487;-65
2021/05/16 03:38:12;;;;;;;1.10;0.70;;;;;;;;;;3574557;40;20386;-66
2021/05/16 03:40:39;;;;;;;0.68;0.50;;;;;;;;;;3579599;40;20420;-66
2021/05/16 03:43:05;;;;;;;0.65;0.50;;;;;;;;;;3574687;40;20417;-66
2021/05/16 03:45:31;;;;;;;1.08;0.88;;;;;;;;;;3574076;40;20392;-65
2021/05/16 03:47:57;;;;;;;1.00;0.60;;;;;;;;;;3572289;40;20373;-65
2021/05/16 03:50:23;;;;;;;1.00;0.50;;;;;;;;;;3576329;40;20530;-65
2021/05/16 03:52:49;;;;;;;1.60;0.50;;;;;;;;;;3570029;40;20357;-65
2021/05/16 03:55:19;;;;;;;1.10;0.50;;;;;;;;;;3570058;40;20395;-65
2021/05/16 03:57:45;;;;;;;0.77;0.60;;;;;;;;;;3572560;40;20419;-65
2021/05/16 04:00:11;;;;;;;1.67;0.50;;;;;;;;;;3579657;40;20375;-65
2021/05/16 04:02:38;;;;;;;0.80;0.50;;;;;;;;;;3579156;40;20667;-65
2021/05/16 04:05:04;;;;;;;0.70;0.60;;;;;;;;;;3572810;40;20457;-65
2021/05/16 04:07:30;;;;;;;0.60;0.50;;;;;;;;;;3571887;40;20941;-65
2021/05/16 04:09:57;;;;;;;0.82;0.50;;;;;;;;;;3576105;40;20643;-65
2021/05/16 04:12:24;;;;;;;1.77;0.60;;;;;;;;;;3574467;40;20731;-66
2021/05/16 04:14:53;;;;;;;0.90;0.60;;;;;;;;;;3572001;40;20382;-66
2021/05/16 04:17:19;;;;;;;1.13;0.50;;;;;;;;;;3574163;40;20392;-66
2021/05/16 04:19:45;;;;;;;0.93;0.57;;;;;;;;;;3573995;40;20374;-66
2021/05/16 04:22:12;;;;;;;1.67;0.70;;;;;;;;;;3572172;40;20384;-66
2021/05/16 04:24:38;;;;;;;0.90;0.77;;;;;;;;;;3574350;40;20512;-65
2021/05/16 04:27:05;;;;;;;0.80;0.50;;;;;;;;;;3573785;40;20472;-65
2021/05/16 04:29:32;;;;;;;0.82;0.60;;;;;;;;;;3570335;40;20384;-65
2021/05/16 04:31:58;;;;;;;2.00;0.60;;;;;;;;;;3571168;40;20481;-66
2021/05/16 04:34:24;;;;;;;2.08;0.80;;;;;;;;;;3567676;40;20471;-65
2021/05/16 04:36:50;;;;;;;0.98;0.50;;;;;;;;;;3579103;40;20359;-65
2021/05/16 04:39:16;;;;;;;0.95;0.50;;;;;;;;;;3569905;40;20384;-65
2021/05/16 04:41:43;;;;;;;0.98;0.50;;;;;;;;;;3567509;40;20385;-66
2021/05/16 04:44:09;;;;;;;0.90;0.57;;;;;;;;;;3573810;40;20386;-66
2021/05/16 04:46:36;;;;;;;1.20;0.60;;;;;;;;;;3572696;40;20657;-65
2021/05/16 04:49:02;;;;;;;0.90;0.50;;;;;;;;;;3576738;40;20827;-66
2021/05/16 04:51:28;;;;;;;0.52;0.50;;;;;;;;;;3573643;40;20378;-66
2021/05/16 04:53:55;;;;;;;1.33;0.50;;;;;;;;;;3574679;40;20388;-65
2021/05/16 04:56:21;;;;;;;0.80;0.47;;;;;;;;;;3574101;40;20387;-66
2021/05/16 04:58:47;;;;;;;0.73;0.50;;;;;;;;;;3576853;40;20660;-66
2021/05/16 05:01:14;;;;;;;1.30;0.68;;;;;;;;;;3577244;40;20389;-65
2021/05/16 05:03:41;;;;;;;0.80;0.60;;;;;;;;;;3586665;40;20405;-65
2021/05/16 05:06:07;;;;;;;0.82;0.40;;;;;;;;;;3574349;40;20488;-65
2021/05/16 05:08:33;;;;;;;0.73;0.57;;;;;;;;;;3570368;40;20374;-65
2021/05/16 05:10:59;;;;;;;0.60;0.50;;;;;;;;;;3574031;40;20371;-65
2021/05/16 05:13:26;;;;;;;0.52;0.40;;;;;;;;;;3574308;40;20393;-66
2021/05/16 05:15:52;;;;;;;0.60;0.40;;;;;;;;;;3573043;40;20883;-66
2021/05/16 05:18:18;;;;;;;0.90;0.50;;;;;;;;;;3575043;40;20380;-65
2021/05/16 05:20:45;;;;;;;2.08;0.43;;;;;;;;;;3574152;40;20697;-65
2021/05/16 05:23:12;;;;;;;0.75;0.40;;;;;;;;;;3570412;40;20399;-66
2021/05/16 05:25:38;;;;;;;0.88;0.50;;;;;;;;;;3576346;40;20379;-66
2021/05/16 05:28:04;;;;;;;0.70;0.40;;;;;;;;;;3574188;40;20766;-65
2021/05/16 05:30:31;;;;;;;1.02;0.50;;;;;;;;;;3571881;40;20376;-65
2021/05/16 05:32:57;;;;;;;1.35;0.50;;;;;;;;;;3570970;40;20366;-65
2021/05/16 05:35:23;;;;;;;1.00;0.50;;;;;;;;;;3575498;40;20388;-65
2021/05/16 05:37:50;;;;;;;0.65;0.50;;;;;;;;;;3578547;40;20405;-66
2021/05/16 05:40:17;;;;;;;0.57;0.50;;;;;;;;;;3572833;40;20454;-65
2021/05/16 05:42:43;;;;;;;1.98;0.50;;;;;;;;;;3571217;40;20455;-66
2021/05/16 05:45:10;;;;;;;1.50;0.50;;;;;;;;;;3575405;40;20364;-66
2021/05/16 05:47:37;;;;;;;0.60;0.40;;;;;;;;;;3575256;40;20384;-66
2021/05/16 05:50:03;;;;;;;0.75;0.40;;;;;;;;;;3574708;40;20451;-65
2021/05/16 05:52:29;;;;;;;1.17;0.40;;;;;;;;;;3570183;40;20452;-65
2021/05/16 05:54:56;;;;;;;0.93;0.40;;;;;;;;;;3571596;40;20398;-66
2021/05/16 05:57:23;;;;;;;0.57;0.40;;;;;;;;;;3577221;40;20898;-66
2021/05/16 05:59:49;;;;;;;0.50;0.40;;;;;;;;;;3566097;40;20797;-66
2021/05/16 06:02:15;;;;;;;1.27;0.52;;;;;;;;;;3576560;40;20398;-65
2021/05/16 06:04:41;;;;;;;0.52;0.45;;;;;;;;;;3579176;40;20421;-65
2021/05/16 06:07:07;;;;;;;1.17;0.50;;;;;;;;;;3572570;40;20378;-65
2021/05/16 06:09:35;;;;;;;1.15;0.35;;;;;;;;;;3573332;40;20384;-66
2021/05/16 06:12:04;;;;;;;0.55;0.40;;;;;;;;;;3576550;40;20430;-65
2021/05/16 06:14:31;;;;;;;0.70;0.50;;;;;;;;;;3576787;40;20723;-65
2021/05/16 06:16:57;;;;;;;0.80;0.40;;;;;;;;;;3572005;40;20433;-66
2021/05/16 06:19:23;;;;;;;1.10;0.45;;;;;;;;;;3569938;40;20393;-65
2021/05/16 06:21:49;;;;;;;0.80;0.40;;;;;;;;;;3569179;40;20410;-66
2021/05/16 06:24:15;;;;;;;0.60;0.40;;;;;;;;;;3573724;40;20368;-66
2021/05/16 06:26:42;;;;;;;0.98;0.60;;;;;;;;;;3567499;40;20717;-66
2021/05/16 06:29:09;;;;;;;1.08;0.50;;;;;;;;;;3570405;40;20381;-65
2021/05/16 06:31:36;;;;;;;0.40;0.30;;;;;;;;;;3570342;40;20393;-66
2021/05/16 06:34:02;;;;;;;0.50;0.32;;;;;;;;;;3566833;40;20767;-65
2021/05/16 06:36:29;;;;;;;1.27;0.60;;;;;;;;;;3566938;40;20394;-65
2021/05/16 06:38:55;;;;;;;0.63;0.40;;;;;;;;;;3573512;40;20397;-66
2021/05/16 06:41:22;;;;;;;0.57;0.40;;;;;;;;;;3572859;40;20373;-65
2021/05/16 06:43:48;;;;;;;0.73;0.40;;;;;;;;;;3574388;40;20376;-65
2021/05/16 06:46:15;;;;;;;0.40;0.30;;;;;;;;;;3570991;40;20691;-65
2021/05/16 06:48:41;;;;;;;0.60;0.30;;;;;;;;;;3571942;40;20382;-66
2021/05/16 06:51:07;;;;;;;0.50;0.40;;;;;;;;;;3571512;40;20389;-65
2021/05/16 06:53:34;;;;;;;1.30;0.40;;;;;;;;;;3575563;40;20384;-65
2021/05/16 06:56:00;;;;;;;0.50;0.30;;;;;;;;;;3576398;40;20379;-65
2021/05/16 06:58:26;;;;;;;0.60;0.40;;;12.60;99.90;;;;;;3575484;40;20858;-66
2021/05/16 07:00:52;;;;;;;0.30;0.30;;;14.30;99.90;;;;;;3574569;40;20381;-65
2021/05/16 07:03:19;;;;;;;0.60;0.25;;;;;;;;;;3577899;40;20489;-65
2021/05/16 07:05:46;;;;;;;0.70;0.40;;;;;;;;;;3572243;40;20412;-66
2021/05/16 07:08:12;;;;;;;0.45;0.30;;;;;;;;;;3573144;40;20462;-66
2021/05/16 07:10:38;;;;;;;0.47;0.32;;;;;;;;;;3577716;40;20410;-65
2021/05/16 07:13:04;;;;;;;1.10;0.38;;;;;;;;;;3576822;40;20372;-65
2021/05/16 07:15:31;;;;;;;0.90;0.30;;;;;;;;;;3568382;40;20474;-65
2021/05/16 07:17:57;;;;;;;0.85;0.30;;;;;;;;;;3568833;40;20794;-66
2021/05/16 07:20:24;;;;;;;0.80;0.30;;;;;;;;;;3567895;40;20709;-66
2021/05/16 07:22:50;;;;;;;0.55;0.25;;;;;;;;;;3571006;40;20395;-65
2021/05/16 07:25:17;;;;;;;0.68;0.20;;;;;;;;;;3569496;40;20389;-66
2021/05/16 07:27:44;;;;;;;0.60;0.30;;;;;;;;;;3568622;40;20390;-65
2021/05/16 07:30:10;;;;;;;1.60;0.22;;;;;;;;;;3567299;40;20374;-66
2021/05/16 07:32:36;;;;;;;1.40;0.30;;;;;;;;;;3586499;40;20455;-66
2021/05/16 07:35:03;;;;;;;1.42;0.30;;;;;;;;;;3570989;40;20753;-66
2021/05/16 07:37:30;;;;;;;1.05;0.30;;;;;;;;;;3572232;40;20404;-66
2021/05/16 07:39:58;;;;;;;2.50;0.45;;;;;;;;;;3575374;40;20400;-66
2021/05/16 07:42:24;;;;;;;1.92;0.38;;;;;;;;;;3575864;40;20376;-66
2021/05/16 07:44:50;;;;;;;1.03;0.37;;;;;;;;;;3567591;40;20377;-66
2021/05/16 07:47:17;;;;;;;1.30;0.30;;;;;;;;;;3572180;40;20507;-65
2021/05/16 07:49:45;;;;;;;1.27;0.30;;;;;;;;;;3573700;40;20367;-66
2021/05/16 07:52:11;;;;;;;2.83;0.40;;;;;;;;;;3570249;40;20399;-66
2021/05/16 07:54:38;;;;;;;1.17;0.40;;;;;;;;;;3572782;40;20366;-66
2021/05/16 07:57:05;;;;;;;2.60;0.50;;;;;;;;;;3576307;40;20395;-66
2021/05/16 07:59:33;;;;;;;2.30;0.80;;;;;;;;;;3569188;40;20388;-67
2021/05/16 08:01:59;;;;;;;0.90;0.30;;;;;;;;;;3570591;40;20399;-66
2021/05/16 08:04:26;;;;;;;1.30;0.40;;;;;;;;;;3568055;40;20789;-66
2021/05/16 08:06:52;;;;;;;1.45;0.40;;;;;;;;;;3570200;40;20380;-66
2021/05/16 08:09:18;;;;;;;2.08;0.40;;;;;;;;;;3570756;40;20707;-66
2021/05/16 08:11:45;;;;;;;0.75;0.35;;;;;;;;;;3569840;40;20413;-66
2021/05/16 08:14:11;;;;;;;1.60;0.32;;;;;;;;;;3570276;40;20484;-66
2021/05/16 08:16:37;;;;;;;1.60;0.40;;;;;;;;;;3577555;40;20389;-65
2021/05/16 08:19:03;;;;;;;0.67;0.30;;;;;;;;;;3574763;40;20778;-65
2021/05/16 08:21:30;;;;;;;1.60;0.40;;;;;;;;;;3569746;40;20405;-65
2021/05/16 08:23:56;;;;;;;1.50;0.40;;;;;;;;;;3577628;40;20393;-67
2021/05/16 08:26:22;;;;;;;0.50;0.30;;;;;;;;;;3568688;40;20386;-66
2021/05/16 08:28:49;;;;;;;1.27;0.30;;;;;;;;;;3571374;40;20480;-66
2021/05/16 08:31:15;;;;;;;0.90;0.32;;;;;;;;;;3571200;40;20491;-66
2021/05/16 08:33:41;;;;;;;0.50;0.30;;;;;;;;;;3572763;40;20384;-66
2021/05/16 08:36:07;;;;;;;1.05;0.30;;;;;;;;;;3574861;40;20384;-65
2021/05/16 08:38:35;;;;;;;0.70;0.30;;;;;;;;;;3569336;40;20402;-66
2021/05/16 08:41:01;;;;;;;1.23;0.40;;;;;;;;;;3570414;40;20407;-65
2021/05/16 08:43:27;;;;;;;0.73;0.20;;;;;;;;;;3570500;40;20674;-66
2021/05/16 08:45:54;;;;;;;0.80;0.30;;;;;;;;;;3568686;40;20455;-66
2021/05/16 08:48:21;;;;;;;0.70;0.30;;;;;;;;;;3568949;40;20790;-66
2021/05/16 08:50:47;;;;;;;0.70;0.20;;;;;;;;;;3573306;40;20406;-67
2021/05/16 08:53:14;;;;;;;1.25;0.30;;;;;;;;;;3577716;40;20483;-67
2021/05/16 08:55:40;;;;;;;1.00;0.30;;;;;;;;;;3576208;40;20468;-65
2021/05/16 08:58:07;;;;;;;0.95;0.40;;;;;;;;;;3571313;40;20405;-66
2021/05/16 09:00:41;;;;;;;0.30;0.25;;;;;;;;;;3573236;40;20387;-66
2021/05/16 09:03:09;;;;;;;0.60;0.30;;;;;;;;;;3567543;40;20362;-66
2021/05/16 09:05:38;;;;;;;0.83;0.20;;;;;;;;;;3573669;40;20713;-66
2021/05/16 09:08:05;;;;;;;0.50;0.30;;;;;;;;;;3571911;40;20725;-66
2021/05/16 09:10:32;;;;;;;0.83;0.20;;;;;;;;;;3574714;40;20373;-66
2021/05/16 09:13:08;;;;;;;0.80;0.30;;;;;;;;;;3572057;40;20377;-66
2021/05/16 09:15:34;;;;;;;0.52;0.20;;;;;;;;;;3569507;40;20453;-66
2021/05/16 09:18:00;;;;;;;0.93;0.30;;;;;;;;;;3568855;40;20390;-66
2021/05/16 09:20:28;;;;;;;0.80;0.30;;;;;;;;;;3576827;40;20648;-66
2021/05/16 09:22:54;;;;;;;1.23;0.40;;;;;;;;;;3572515;40;20408;-67
2021/05/16 09:25:22;;;;;;;1.00;0.40;;;;;;;;;;3571059;40;20528;-67
2021/05/16 09:27:51;;;;;;;5.18;3.90;;;;;;;;;;3575791;40;20474;-66
2021/05/16 09:30:27;;;;;;;1.60;0.70;;;;;;;;;;3571534;40;20759;-67
2021/05/16 09:32:54;;;;;;;3.30;0.50;;;;;;;;;;3570158;40;20374;-67
2021/05/16 09:35:26;;;;;;;1.87;0.60;;;;;;;;;;3569626;40;20381;-67
2021/05/16 09:38:02;;;;;;;0.95;0.50;;;;;;;;;;3575002;40;20855;-66
2021/05/16 09:40:29;;;;;;;1.00;0.40;;;;;;;;;;3579670;40;20406;-65
2021/05/16 09:43:12;;;;;;;0.80;0.32;;;;;;;;;;3581004;40;20401;-66
2021/05/16 09:46:02;;;;;;;1.52;0.60;;;;;;;;;;3586977;40;20399;-65
2021/05/16 09:48:36;;;;;;;1.88;0.40;;;;;;;;;;3581284;40;20376;-67
2021/05/16 09:51:14;;;;;;;0.80;0.30;;;;;;;;;;3569668;40;20406;-66
2021/05/16 09:53:49;;;;;;;1.00;0.30;;;;;;;;;;3578894;40;20428;-66
2021/05/16 09:56:17;;;;;;;1.88;1.00;;;;;;;;;;3576206;40;20373;-68
2021/05/16 09:58:43;;;;;;;9.80;8.77;;;;;;;;;;3579679;40;20376;-66
2021/05/16 10:01:10;;;;;;;2.85;1.35;;;;;;;;;;3584593;40;20486;-68
2021/05/16 10:03:37;;;;;;;3.25;0.90;;;;;;;;;;3578209;40;20407;-67
2021/05/16 10:06:04;;;;;;;0.60;0.50;;;;;;;;;;3577123;40;20401;-66
2021/05/16 10:08:31;;;;;;;2.03;0.60;;;;;;;;;;3581448;40;20393;-67
2021/05/16 10:10:58;;;;;;;1.90;0.98;;;;;;;;;;3578661;40;20383;-66
2021/05/16 10:13:27;;;;;;;1.67;1.00;;;;;;;;;;3577191;40;20785;-66
2021/05/16 10:15:54;;;;;;;2.15;0.50;;;;;;;;;;3580608;40;20408;-66
2021/05/16 10:18:21;;;;;;;2.67;1.60;;;;;;;;;;3578865;40;20376;-65
2021/05/16 10:20:47;;;;;;;15.55;11.45;;;;;;;;;;3579895;40;20384;-66
2021/05/16 10:23:29;;;;;;;2.83;1.15;;;;;;;;;;3572724;40;20401;-69
2021/05/16 10:25:57;;;;;;;20.35;18.17;;;;;;;;;;3588556;40;20419;-66
2021/05/16 10:28:52;;;;;;;37.17;30.20;;;;;;;;;;3578683;40;20545;-65
2021/05/16 10:31:38;;;;;;;24.95;20.45;;;;;;;;;;3578460;40;20386;-66
2021/05/16 10:34:38;;;;;;;48.65;42.50;;;;;;;;;;3577459;40;20376;-65
2021/05/16 10:37:04;;;;;;;35.13;29.90;;;;;;;;;;3580560;40;20418;-69
2021/05/16 10:39:49;;;;;;;29.70;25.13;;;;;;;;;;3578938;40;20378;-66
2021/05/16 10:42:16;;;;;;;6.10;4.88;;;;;;;;;;3580449;40;20372;-67
2021/05/16 10:44:56;;;;;;;11.85;8.88;;;;;;;;;;3581714;40;20375;-66
2021/05/16 10:47:41;;;;;;;0.65;0.40;;;;;;;;;;3587425;40;20406;-68
2021/05/16 10:50:07;;;;;;;7.88;6.10;;;;;;;;;;3579080;40;20637;-66
2021/05/16 10:52:33;;;;;;;37.27;30.33;;;;;;;;;;3589647;40;20708;-67
2021/05/16 10:54:59;;;;;;;14.93;10.90;;;;;;;;;;3582260;40;20778;-65
2021/05/16 10:57:35;;;;;;;65.95;49.60;;;;;;;;;;3582577;40;20390;-66
2021/05/16 11:00:22;;;;;;;2.47;1.67;;;;;;;;;;3580622;40;20431;-66
2021/05/16 11:02:58;;;;;;;82.10;65.68;;;;;;;;;;3579141;40;20375;-66
2021/05/16 11:05:39;;;;;;;86.38;64.47;;;;;;;;;;3578757;40;20397;-67
2021/05/16 11:08:06;;;;;;;2.85;1.17;;;;;;;;;;3547432;40;20397;-66
2021/05/16 11:10:32;;;;;;;31.95;22.65;;;;;;;;;;3568610;40;20393;-65
2021/05/16 11:13:06;;;;;;;3.95;3.13;;;;;;;;;;3575769;40;20767;-66
2021/05/16 11:15:33;;;;;;;1.48;1.02;;;;;;;;;;3579456;40;20376;-67
2021/05/16 11:18:00;;;;;;;4.95;3.83;;;;;;;;;;3583483;40;20422;-65
2021/05/16 11:20:26;;;;;;;2.15;0.88;;;;;;;;;;3579886;40;20410;-68
2021/05/16 11:22:56;;;;;;;2.35;1.70;;;;;;;;;;3579303;40;20374;-66
2021/05/16 11:25:26;;;;;;;0.70;0.50;;;;;;;;;;3577931;40;20400;-65
2021/05/16 11:27:52;;;;;;;1.02;0.40;;;;;;;;;;3578481;40;20376;-67
2021/05/16 11:30:21;;;;;;;1.02;0.40;;;;;;;;;;3580816;40;20404;-66
2021/05/16 11:32:48;;;;;;;0.38;0.30;;;;;;;;;;3580190;40;20395;-66
2021/05/16 11:35:16;;;;;;;0.80;0.35;;;;;;;;;;3577505;40;20410;-67
2021/05/16 11:37:45;;;;;;;0.70;0.30;;;;;;;;;;3577081;40;20406;-67
2021/05/16 11:40:15;;;;;;;1.00;0.30;;;;;;;;;;3579524;40;20380;-65
2021/05/16 11:42:42;;;;;;;0.83;0.30;;;;;;;;;;3586155;40;20662;-67
2021/05/16 11:45:09;;;;;;;1.05;0.30;;;;;;;;;;3579050;40;20414;-68
2021/05/16 11:47:35;;;;;;;1.77;0.50;;;;;;;;;;3587570;40;20403;-67
2021/05/16 11:50:03;;;;;;;1.55;0.30;;;;;;;;;;3586969;40;20415;-67
2021/05/16 11:52:29;;;;;;;1.05;0.40;;;;;;;;;;3576724;40;20382;-67
2021/05/16 11:54:57;;;;;;;1.00;0.20;;;;;;;;;;3579963;40;20382;-68
2021/05/16 11:57:23;;;;;;;0.80;0.30;;;;;;;;;;3587147;40;20400;-67
2021/05/16 11:59:50;;;;;;;0.90;0.30;;;;;;;;;;3578496;40;20535;-67
2021/05/16 12:02:16;;;;;;;1.58;0.30;;;;;;;;;;3576429;40;20762;-68
2021/05/16 12:04:42;;;;;;;1.10;0.50;;;;;;;;;;3573977;40;20433;-68
2021/05/16 12:07:10;;;;;;;0.80;0.30;;;;;;;;;;3568341;40;20425;-68
2021/05/16 12:09:39;;;;;;;1.20;0.30;;;;;;;;;;3573467;40;20473;-68
2021/05/16 12:12:16;;;;;;;1.10;0.38;;;;;;;;;;3569269;40;20403;-67
2021/05/16 12:14:43;;;;;;;0.63;0.30;;;;;;;;;;3572716;40;20415;-68
2021/05/16 12:17:10;;;;;;;0.85;0.30;;;;;;;;;;3570641;40;20369;-67
2021/05/16 12:19:39;;;;;;;0.90;0.30;;;;;;;;;;3571427;40;20381;-67
2021/05/16 12:22:06;;;;;;;0.90;0.30;;;;;;;;;;3572191;40;20459;-67
2021/05/16 12:24:34;;;;;;;1.00;0.32;;;;;;;;;;3570516;40;20422;-69
2021/05/16 12:27:01;;;;;;;0.85;0.30;;;;;;;;;;3571853;40;20794;-67
2021/05/16 12:29:27;;;;;;;1.90;0.30;;;;;;;;;;3574537;40;20380;-67
2021/05/16 12:31:56;;;;;;;1.13;0.32;;;;;;;;;;3577694;40;20397;-70
2021/05/16 12:34:23;;;;;;;1.10;0.60;;;;;;;;;;3579321;40;20895;-71
2021/05/16 12:36:51;;;;;;;0.82;0.50;;;;;;;;;;3579827;40;20451;-72
2021/05/16 12:39:32;;;;;;;0.70;0.37;;;;;;;;;;3572623;40;20765;-72
2021/05/16 12:41:59;;;;;;;0.80;0.30;;;;;;;;;;3574168;40;20405;-68
2021/05/16 12:44:26;;;;;;;0.50;0.30;;;;;;;;;;3570335;40;20431;-69
2021/05/16 12:46:54;;;;;;;1.00;0.30;;;;;;;;;;3569403;40;20382;-71
2021/05/16 12:49:21;;;;;;;1.13;0.30;;;;;;;;;;3578348;40;20394;-73
2021/05/16 12:51:58;;;;;;;1.40;0.30;;;;;;;;;;3574486;40;20371;-69
2021/05/16 12:54:25;;;;;;;0.80;0.30;;;;;;;;;;3573909;40;20381;-70
2021/05/16 12:56:55;;;;;;;0.60;0.38;;;;;;;;;;3570478;40;20510;-71
2021/05/16 12:59:26;;;;;;;0.80;0.30;;;;;;;;;;3575011;40;20798;-71
2021/05/16 13:02:03;;;;;;;1.25;0.40;;;;;;;;;;3574137;40;20662;-70
2021/05/16 13:04:29;;;;;;;0.93;0.30;;;;;;;;;;3574702;40;20473;-72
2021/05/16 13:06:55;;;;;;;1.40;0.38;;;;;;;;;;3570624;40;20668;-72
2021/05/16 13:09:27;;;;;;;1.52;0.40;;;;;;;;;;3572089;40;20667;-71
2021/05/16 13:11:56;;;;;;;1.20;0.40;;;;;;;;;;3572235;40;20479;-71
2021/05/16 13:14:23;;;;;;;0.40;0.30;;;;;;;;;;3574628;40;20398;-72
2021/05/16 13:16:50;;;;;;;0.43;0.40;;;;;;;;;;3574883;40;20374;-72
2021/05/16 13:19:31;;;;;;;0.50;0.30;;;;;;;;;;3572236;40;20392;-74
2021/05/16 13:21:57;;;;;;;1.10;0.50;;;;;;;;;;3574840;40;20366;-73
2021/05/16 13:24:24;;;;;;;1.30;0.40;;;19.60;96.20;;;;;;3571205;40;20487;-72
2021/05/16 13:26:57;;;;;;;1.02;0.40;;;;;;;;;;3573620;40;20417;-71
2021/05/16 13:29:24;;;;;;;0.98;0.40;;;;;;;;;;3571173;40;20362;-71
2021/05/16 13:31:52;;;;;;;0.65;0.40;;;;;;;;;;3576005;40;20378;-71
2021/05/16 13:34:25;;;;;;;1.10;0.40;;;;;;;;;;3568391;40;20906;-73
2021/05/16 13:36:54;;;;;;;0.60;0.30;;;;;;;;;;3572078;40;20378;-71
2021/05/16 13:39:21;;;;;;;0.80;0.40;;;;;;;;;;3569911;40;20407;-72
2021/05/16 13:41:47;;;;;;;1.10;0.50;;;;;;;;;;3572216;40;20773;-73
2021/05/16 13:44:14;;;;;;;0.80;0.35;;;;;;;;;;3567758;40;20413;-73
2021/05/16 13:46:40;;;;;;;0.90;0.30;;;;;;;;;;3571368;40;20564;-72
2021/05/16 13:49:11;;;;;;;1.48;0.50;;;;;;;;;;3574862;40;20391;-74
2021/05/16 13:51:39;;;;;;;1.30;0.30;;;;;;;;;;3574822;40;20456;-72
2021/05/16 13:54:06;;;;;;;1.10;0.50;;;;;;;;;;3570695;40;20376;-71
2021/05/16 13:56:32;;;;;;;1.10;0.40;;;;;;;;;;3574954;40;20645;-71
2021/05/16 13:58:58;;;;;;;1.35;0.40;;;;;;;;;;3570506;40;20390;-71
2021/05/16 14:01:24;;;;;;;1.10;0.50;;;;;;;;;;3571196;40;20428;-70
2021/05/16 14:03:50;;;;;;;0.90;0.40;;;;;;;;;;3572866;40;20811;-72
2021/05/16 14:06:17;;;;;;;1.13;0.35;;;20.30;94.70;;;;;;3574680;40;20384;-75
2021/05/16 14:08:44;;;;;;;0.50;0.40;;;20.90;93.50;;;;;;3570762;40;20453;-71
2021/05/16 14:11:10;;;;;;;2.80;0.38;;;;;;;;;;3573606;40;20680;-70
2021/05/16 14:13:36;;;;;;;0.50;0.30;;;;;;;;;;3570585;40;20660;-71
2021/05/16 14:16:03;;;;;;;1.65;0.38;;;;;;;;;;3571194;40;20374;-71
2021/05/16 14:18:29;;;;;;;0.30;0.30;;;;;;;;;;3572568;40;20428;-72
2021/05/16 14:20:55;;;;;;;0.75;0.30;;;;;;;;;;3572095;40;20387;-71
2021/05/16 14:23:22;;;;;;;0.93;0.40;;;;;;;;;;3571510;40;20833;-71
2021/05/16 14:25:48;;;;;;;0.85;0.30;;;;;;;;;;3570746;40;20400;-71
2021/05/16 14:28:14;;;;;;;0.60;0.30;;;;;;;;;;3568156;40;20370;-71
2021/05/16 14:30:45;;;;;;;1.42;0.40;;;;;;;;;;3574626;40;20727;-71
2021/05/16 14:33:11;;;;;;;1.67;0.40;;;;;;;;;;3572739;40;20370;-71
2021/05/16 14:35:37;;;;;;;1.35;0.30;;;;;;;;;;3574511;40;20381;-71
2021/05/16 14:38:03;;;;;;;1.17;0.30;;;;;;;;;;3573107;40;20394;-71
2021/05/16 14:40:30;;;;;;;1.05;0.30;;;;;;;;;;3573031;40;20392;-72
2021/05/16 14:42:56;;;;;;;0.98;0.40;;;;;;;;;;3571687;40;20751;-72